Terminal Aerodrome Forecast
Issued by NWS

Home | Current Version | Previous Version | Graphics & Text | Print | Product List | Glossary On
Versions: 1 2 3 4 5 6 7 8 9 10 11 12 13 14 15 16 17 18 19 20 21 22 23 24
000
FTUS43 KGRB 291137 CCA
TAFAUW
TAF COR
KAUW 291137Z 2912/3012 15003KT 6SM BR SCT004 BKN035
      TEMPO 2912/2914 3SM BR BKN004
     FM291400 16005KT P6SM BKN026
     FM291700 19006KT P6SM BKN080
     FM292200 20004KT P6SM SCT060
     FM300500 22003KT 5SM BR SCT060
     FM300600 24003KT 3SM BR BKN050=

USA.gov is the U.S. government's official web portal to all federal, state and local government web resources and services.